createdAt,value
2023-02-24T00:02:01.812Z,61.03
2023-02-24T00:04:31.961Z,63.70
2023-02-24T00:07:04.018Z,64.40
2023-02-24T00:09:33.992Z,62.30
2023-02-24T00:12:04.678Z,64.88
2023-02-24T00:14:35.925Z,69.72
2023-02-24T00:17:05.545Z,58.40
2023-02-24T00:19:33.923Z,62.85
2023-02-24T00:22:04.367Z,61.38
2023-02-24T00:24:33.111Z,63.10
2023-02-24T00:27:08.119Z,67.00
2023-02-24T00:29:37.617Z,63.63
2023-02-24T00:32:08.319Z,63.42
2023-02-24T00:34:37.941Z,68.13
2023-02-24T00:37:08.515Z,65.70
2023-02-24T00:39:42.164Z,68.35
2023-02-24T00:42:12.175Z,63.25
2023-02-24T00:44:42.834Z,59.88
2023-02-24T00:47:14.509Z,63.30
2023-02-24T00:49:43.788Z,68.00
2023-02-24T00:52:15.787Z,66.93
2023-02-24T00:54:47.252Z,66.10
2023-02-24T00:57:20.971Z,66.28
2023-02-24T00:59:51.876Z,66.63
2023-02-24T01:02:22.381Z,63.17
2023-02-24T01:04:51.482Z,70.35
2023-02-24T01:07:21.449Z,61.25
2023-02-24T01:09:56.235Z,62.47
2023-02-24T01:12:47.695Z,64.80
2023-02-24T01:15:17.440Z,62.17
2023-02-24T01:17:46.324Z,67.63
2023-02-24T01:20:19.893Z,56.20
2023-02-24T01:22:53.491Z,58.22
2023-02-24T01:25:22.335Z,61.85
2023-02-24T01:27:52.640Z,62.42
2023-02-24T01:30:22.829Z,60.25
2023-02-24T01:32:52.002Z,57.38
2023-02-24T01:35:20.901Z,61.35
2023-02-24T01:37:53.316Z,64.03
2023-02-24T01:40:23.216Z,66.07
2023-02-24T01:42:51.732Z,60.22
2023-02-24T01:45:25.300Z,62.42
2023-02-24T01:47:56.038Z,59.15
2023-02-24T01:50:26.434Z,62.28
2023-02-24T01:52:59.197Z,57.25
2023-02-24T01:55:32.294Z,65.43
2023-02-24T02:00:38.278Z,63.40
2023-02-24T02:03:32.192Z,60.15
2023-02-24T02:06:03.520Z,64.05
2023-02-24T02:08:40.597Z,58.85
2023-02-24T02:11:12.052Z,61.80
2023-02-24T02:13:43.997Z,52.47
2023-02-24T02:16:44.441Z,57.20
2023-02-24T02:19:56.078Z,57.28
2023-02-24T02:22:50.695Z,57.33
2023-02-24T02:25:28.578Z,59.00
2023-02-24T02:28:31.835Z,58.65
2023-02-24T02:31:26.377Z,53.67
2023-02-24T02:34:21.153Z,54.47
2023-02-24T02:36:59.381Z,57.53
2023-02-24T02:39:40.306Z,56.40
2023-02-24T02:42:18.268Z,50.70
2023-02-24T02:44:56.051Z,58.30
2023-02-24T02:47:28.889Z,56.20
2023-02-24T02:50:02.825Z,51.40
2023-02-24T02:52:36.351Z,56.58
2023-02-24T02:55:10.427Z,59.00
2023-02-24T02:57:47.194Z,60.97
2023-02-24T03:00:23.306Z,56.25
2023-02-24T03:02:56.288Z,55.17
2023-02-24T03:05:32.015Z,55.15
2023-02-24T03:08:04.786Z,59.17
2023-02-24T03:10:34.415Z,59.08
2023-02-24T03:13:07.184Z,60.13
2023-02-24T03:15:42.176Z,56.80
2023-02-24T03:18:16.469Z,54.80
2023-02-24T03:20:53.183Z,53.08
2023-02-24T03:23:27.480Z,58.65
2023-02-24T03:26:00.106Z,59.30
2023-02-24T03:28:35.841Z,53.55
2023-02-24T03:31:11.217Z,53.20
2023-02-24T03:33:44.991Z,55.33
2023-02-24T03:36:15.374Z,54.45
2023-02-24T03:38:50.460Z,53.10
2023-02-24T03:41:20.526Z,54.90
2023-02-24T03:43:51.432Z,52.00
2023-02-24T03:46:20.142Z,62.88
2023-02-24T03:48:55.771Z,51.03
2023-02-24T03:51:25.667Z,54.95
2023-02-24T03:54:05.594Z,54.83
2023-02-24T03:56:47.203Z,53.80
2023-02-24T03:59:25.267Z,52.40
2023-02-24T04:01:59.419Z,60.08
2023-02-24T04:04:34.044Z,54.53
2023-02-24T04:07:09.894Z,58.03
2023-02-24T04:09:41.874Z,51.58
2023-02-24T04:12:19.848Z,49.60
2023-02-24T04:14:53.590Z,51.72
2023-02-24T04:17:27.543Z,57.47
2023-02-24T04:20:10.016Z,51.88
2023-02-24T04:22:42.077Z,51.63
2023-02-24T04:25:15.979Z,51.25
2023-02-24T04:27:45.678Z,51.00
2023-02-24T04:30:14.938Z,55.22
2023-02-24T04:32:44.648Z,49.53
2023-02-24T04:35:17.213Z,48.78
2023-02-24T04:37:47.176Z,51.65
2023-02-24T04:40:17.736Z,57.00
2023-02-24T04:42:50.286Z,50.30
2023-02-24T04:45:21.801Z,50.50
2023-02-24T04:47:51.329Z,47.10
2023-02-24T04:50:24.300Z,52.97
2023-02-24T04:52:56.062Z,59.03
2023-02-24T04:55:29.924Z,53.30
2023-02-24T04:57:58.730Z,52.78
2023-02-24T05:00:29.649Z,52.97
2023-02-24T05:02:59.364Z,50.30
2023-02-24T05:05:28.751Z,49.42
2023-02-24T05:08:03.215Z,56.83
2023-02-24T05:10:36.391Z,54.28
2023-02-24T05:15:35.861Z,54.05
2023-02-24T05:18:08.048Z,49.60
2023-02-24T05:20:55.785Z,49.17
2023-02-24T05:23:27.952Z,57.53
2023-02-24T05:25:56.897Z,48.50
2023-02-24T05:28:25.637Z,59.40
2023-02-24T05:30:56.296Z,56.00
2023-02-24T05:33:25.273Z,50.83
2023-02-24T05:35:53.599Z,55.92
2023-02-24T05:38:21.979Z,54.40
2023-02-24T05:40:57.961Z,53.17
2023-02-24T05:43:26.643Z,57.97
2023-02-24T05:45:57.355Z,52.20
2023-02-24T05:48:28.670Z,53.53
2023-02-24T05:50:57.359Z,51.72
2023-02-24T05:53:25.869Z,60.88
2023-02-24T05:55:56.131Z,51.20
2023-02-24T05:58:25.931Z,49.15
2023-02-24T06:00:57.406Z,51.40
2023-02-24T06:03:31.601Z,56.92
2023-02-24T06:06:05.485Z,53.42
2023-02-24T06:08:42.230Z,52.75
2023-02-24T06:11:19.081Z,54.17
2023-02-24T06:13:48.895Z,51.83
2023-02-24T06:16:18.669Z,54.83
2023-02-24T06:18:51.880Z,49.63
2023-02-24T06:21:21.296Z,55.72
2023-02-24T06:23:50.228Z,59.72
2023-02-24T06:26:21.659Z,55.28
2023-02-24T06:28:50.109Z,57.05
2023-02-24T06:31:18.667Z,54.97
2023-02-24T06:33:47.160Z,58.60
2023-02-24T06:36:16.255Z,57.67
2023-02-24T06:38:46.562Z,59.10
2023-02-24T06:41:15.580Z,57.17
2023-02-24T06:43:48.206Z,59.58
2023-02-24T06:46:18.997Z,61.55
2023-02-24T06:48:49.617Z,57.45
2023-02-24T06:51:18.814Z,53.78
2023-02-24T06:53:50.680Z,61.65
2023-02-24T06:56:19.871Z,52.78
2023-02-24T06:58:52.109Z,54.22
2023-02-24T07:01:25.763Z,57.70
2023-02-24T07:04:18.040Z,57.53
2023-02-24T07:06:51.995Z,55.90
2023-02-24T07:09:26.939Z,55.60
2023-02-24T07:12:08.022Z,57.70
2023-02-24T07:14:38.459Z,53.35
2023-02-24T07:17:07.500Z,56.40
2023-02-24T07:19:36.662Z,54.15
2023-02-24T07:22:05.160Z,53.03
2023-02-24T07:24:36.755Z,53.63
2023-02-24T07:27:06.960Z,53.10
2023-02-24T07:29:40.020Z,52.00
2023-02-24T07:32:10.467Z,52.75
2023-02-24T07:34:42.485Z,57.65
2023-02-24T07:37:12.346Z,52.08
2023-02-24T07:39:43.035Z,54.45
2023-02-24T07:42:14.154Z,58.53
2023-02-24T07:44:48.672Z,51.28
2023-02-24T07:47:17.192Z,52.38
2023-02-24T07:49:45.938Z,54.58
2023-02-24T07:52:16.283Z,58.47
2023-02-24T07:54:47.158Z,53.58
2023-02-24T07:57:15.715Z,56.38
2023-02-24T07:59:48.050Z,57.75
2023-02-24T08:02:18.834Z,53.50
2023-02-24T08:04:51.513Z,52.55
2023-02-24T08:07:24.443Z,50.83
2023-02-24T08:10:16.325Z,53.75
2023-02-24T08:12:44.933Z,50.65
2023-02-24T08:15:24.384Z,52.17
2023-02-24T08:17:56.239Z,58.78
2023-02-24T08:20:36.223Z,48.17
2023-02-24T08:23:06.554Z,48.33
2023-02-24T08:25:38.404Z,50.78
2023-02-24T08:28:11.672Z,54.03
2023-02-24T08:30:46.503Z,53.47
2023-02-24T08:33:22.229Z,51.38
2023-02-24T08:35:58.287Z,52.13
2023-02-24T08:38:28.501Z,54.08
2023-02-24T08:41:04.771Z,53.15
2023-02-24T08:43:38.863Z,47.38
2023-02-24T08:46:21.571Z,51.45
2023-02-24T08:48:55.607Z,55.88
2023-02-24T08:51:28.882Z,51.40
2023-02-24T08:54:00.497Z,49.55
2023-02-24T08:56:31.089Z,50.97
2023-02-24T08:59:05.677Z,51.05
2023-02-24T09:01:37.782Z,51.45
2023-02-24T09:04:08.789Z,49.47
2023-02-24T09:06:43.959Z,50.47
2023-02-24T09:09:22.624Z,46.58
2023-02-24T09:11:56.171Z,55.53
2023-02-24T09:14:28.511Z,53.42
2023-02-24T09:17:11.665Z,46.65
2023-02-24T09:20:01.488Z,47.30
2023-02-24T09:22:40.850Z,51.35
2023-02-24T09:25:21.702Z,46.35
2023-02-24T09:27:56.317Z,51.17
2023-02-24T09:30:37.809Z,50.28
2023-02-24T09:33:21.259Z,53.67
2023-02-24T09:38:43.079Z,50.38
2023-02-24T09:41:41.295Z,49.97
2023-02-24T09:44:18.361Z,43.22
2023-02-24T09:46:54.953Z,49.28
2023-02-24T09:49:40.828Z,46.38
2023-02-24T09:52:17.887Z,50.92
2023-02-24T09:55:05.967Z,48.15
2023-02-24T09:58:01.756Z,46.88
2023-02-24T10:00:33.664Z,44.53
2023-02-24T10:03:20.607Z,42.53
2023-02-24T10:06:12.426Z,43.15
2023-02-24T10:08:46.370Z,40.20
2023-02-24T10:11:16.730Z,45.70
2023-02-24T10:13:50.957Z,44.35
2023-02-24T10:16:24.936Z,44.20
2023-02-24T10:19:12.188Z,42.15
2023-02-24T10:22:00.574Z,40.63
2023-02-24T10:24:36.105Z,40.58
2023-02-24T10:27:17.456Z,42.47
2023-02-24T10:30:03.189Z,43.67
2023-02-24T10:32:43.554Z,43.30
2023-02-24T10:35:16.818Z,41.47
2023-02-24T10:37:49.415Z,35.83
2023-02-24T10:40:26.755Z,38.92
2023-02-24T10:43:10.436Z,34.42
2023-02-24T10:45:45.317Z,34.55
2023-02-24T10:48:40.223Z,34.50
2023-02-24T10:51:20.652Z,35.88
2023-02-24T10:54:10.976Z,35.75
2023-02-24T10:56:45.246Z,31.98
2023-02-24T10:59:33.226Z,32.20
2023-02-24T11:02:17.233Z,33.80
2023-02-24T11:05:05.232Z,32.10
2023-02-24T11:07:44.192Z,37.05
2023-02-24T11:10:26.167Z,31.67
2023-02-24T11:13:13.918Z,37.45
2023-02-24T11:16:17.768Z,35.38
2023-02-24T11:18:50.219Z,34.80
2023-02-24T11:21:22.401Z,33.55
2023-02-24T11:23:54.020Z,35.45
2023-02-24T11:26:26.771Z,28.30
2023-02-24T11:29:06.603Z,33.13
2023-02-24T11:31:46.807Z,35.38
2023-02-24T11:34:24.421Z,37.28
2023-02-24T11:37:04.191Z,37.63
2023-02-24T11:39:53.765Z,42.13
2023-02-24T11:42:29.191Z,41.63
2023-02-24T11:45:04.311Z,42.10
2023-02-24T11:47:40.346Z,41.53
2023-02-24T11:50:24.749Z,37.97
2023-02-24T11:52:55.355Z,39.22
2023-02-24T11:55:32.751Z,39.70
2023-02-24T11:58:08.770Z,36.17
2023-02-24T12:00:42.494Z,34.67
2023-02-24T12:03:18.469Z,36.00
2023-02-24T12:05:53.813Z,38.58
2023-02-24T12:08:30.090Z,34.03
2023-02-24T12:11:08.839Z,36.67
2023-02-24T12:13:44.241Z,35.28
2023-02-24T12:16:17.025Z,34.85
2023-02-24T12:18:48.678Z,35.15
2023-02-24T12:21:22.977Z,34.30
2023-02-24T12:23:54.890Z,32.25
2023-02-24T12:26:27.372Z,31.27
2023-02-24T12:29:25.492Z,33.45
2023-02-24T12:32:00.896Z,26.42
2023-02-24T12:34:43.207Z,31.85
2023-02-24T12:37:41.050Z,27.33
2023-02-24T12:40:22.516Z,30.52
2023-02-24T12:42:58.802Z,28.65
2023-02-24T12:45:40.005Z,25.92
2023-02-24T12:48:19.462Z,27.92
2023-02-24T12:50:52.899Z,26.88
2023-02-24T12:53:28.269Z,28.13
2023-02-24T12:56:06.509Z,25.98
2023-02-24T12:58:38.044Z,22.20
2023-02-24T13:01:18.091Z,27.63
2023-02-24T13:04:11.368Z,23.27
2023-02-24T13:06:50.533Z,24.20
2023-02-24T13:09:25.852Z,22.20
2023-02-24T13:11:59.446Z,22.08
2023-02-24T13:14:31.954Z,21.17
2023-02-24T13:17:23.517Z,20.95
2023-02-24T13:19:55.851Z,22.42
2023-02-24T13:22:31.846Z,20.15
2023-02-24T13:25:11.268Z,17.23
2023-02-24T13:27:42.266Z,20.70
2023-02-24T13:30:30.962Z,20.27
2023-02-24T13:33:06.672Z,18.63
2023-02-24T13:35:37.827Z,14.05
2023-02-24T13:38:24.049Z,17.90
2023-02-24T13:40:52.959Z,19.33
2023-02-24T13:43:28.436Z,14.38
2023-02-24T13:46:01.377Z,18.25
2023-02-24T13:48:51.860Z,15.63
2023-02-24T13:51:56.337Z,13.57
2023-02-24T13:54:59.858Z,14.45
2023-02-24T13:57:57.859Z,13.77
2023-02-24T14:00:35.110Z,13.30
2023-02-24T14:03:12.600Z,13.30
2023-02-24T14:05:43.494Z,15.32
2023-02-24T14:08:26.557Z,13.80
2023-02-24T14:11:04.203Z,11.93
2023-02-24T14:13:34.372Z,10.82
2023-02-24T14:16:07.583Z,10.80
2023-02-24T14:18:36.672Z,12.25
2023-02-24T14:21:07.761Z,9.98
2023-02-24T14:23:37.942Z,11.07
2023-02-24T14:26:09.348Z,11.85
2023-02-24T14:28:41.815Z,13.63
2023-02-24T14:31:13.694Z,10.25
2023-02-24T14:33:44.130Z,10.57
2023-02-24T14:36:21.900Z,13.35
2023-02-24T14:39:04.324Z,10.70
2023-02-24T14:41:34.652Z,11.77
2023-02-24T14:44:13.128Z,10.95
2023-02-24T14:46:49.204Z,10.57
2023-02-24T14:49:25.537Z,11.52
2023-02-24T14:51:58.193Z,9.95
2023-02-24T14:54:46.304Z,9.80
2023-02-24T14:57:19.626Z,10.98
2023-02-24T14:59:52.424Z,13.73
2023-02-24T15:02:26.375Z,10.02
2023-02-24T15:04:58.095Z,9.05
2023-02-24T15:07:30.172Z,9.77
2023-02-24T15:10:00.756Z,11.45
2023-02-24T15:12:32.731Z,11.38
2023-02-24T15:15:04.550Z,10.40
2023-02-24T15:17:34.459Z,8.75
2023-02-24T15:20:07.677Z,9.88
2023-02-24T15:22:39.763Z,12.77
2023-02-24T15:25:24.098Z,9.40
2023-02-24T15:27:59.598Z,9.80
2023-02-24T15:30:31.439Z,16.25
2023-02-24T15:33:09.278Z,8.77
2023-02-24T15:35:47.448Z,8.23
2023-02-24T15:38:23.247Z,9.48
2023-02-24T15:40:55.964Z,10.70
2023-02-24T15:43:33.951Z,10.98
2023-02-24T15:46:03.395Z,13.05
2023-02-24T15:48:32.184Z,10.73
2023-02-24T15:51:08.607Z,12.32
2023-02-24T15:53:36.915Z,11.93
2023-02-24T15:56:07.191Z,12.30
2023-02-24T15:58:36.242Z,10.75
2023-02-24T16:01:06.869Z,10.35
2023-02-24T16:03:37.522Z,8.85
2023-02-24T16:06:07.564Z,12.00
2023-02-24T16:08:44.613Z,15.55
2023-02-24T16:11:15.380Z,9.27
2023-02-24T16:13:50.154Z,14.93
2023-02-24T16:16:21.546Z,11.52
2023-02-24T16:18:51.057Z,9.75
2023-02-24T16:21:20.473Z,13.90
2023-02-24T16:23:48.848Z,10.13
2023-02-24T16:26:23.740Z,11.77
2023-02-24T16:28:55.927Z,12.73
2023-02-24T16:31:25.875Z,9.07
2023-02-24T16:33:55.896Z,14.85
2023-02-24T16:36:28.847Z,10.00
2023-02-24T16:38:57.539Z,11.40
2023-02-24T16:41:28.264Z,13.07
2023-02-24T16:43:56.817Z,10.20
2023-02-24T16:46:26.335Z,9.52
2023-02-24T16:48:57.702Z,10.95
2023-02-24T16:51:26.221Z,9.70
2023-02-24T16:53:54.804Z,10.05
2023-02-24T16:56:23.489Z,15.48
2023-02-24T16:58:53.744Z,9.27
2023-02-24T17:01:23.166Z,14.68
2023-02-24T17:03:53.833Z,14.10
2023-02-24T17:06:24.344Z,13.63
2023-02-24T17:08:53.085Z,13.27
2023-02-24T17:11:23.443Z,10.80
2023-02-24T17:13:53.456Z,13.68
2023-02-24T17:16:23.134Z,14.38
2023-02-24T17:18:51.608Z,11.15
2023-02-24T17:21:20.726Z,10.63
2023-02-24T17:23:52.180Z,15.38
2023-02-24T17:26:21.308Z,11.15
2023-02-24T17:28:50.396Z,12.95
2023-02-24T17:31:21.174Z,13.73
2023-02-24T17:33:49.991Z,11.73
2023-02-24T17:36:19.837Z,11.88
2023-02-24T17:38:49.028Z,12.77
2023-02-24T17:41:19.388Z,19.83
2023-02-24T17:43:47.983Z,13.68
2023-02-24T17:46:16.657Z,14.93
2023-02-24T17:48:47.773Z,12.30
2023-02-24T17:51:16.102Z,13.23
2023-02-24T17:53:44.884Z,12.90
2023-02-24T17:56:14.208Z,13.15
2023-02-24T17:58:43.498Z,14.23
2023-02-24T18:01:12.556Z,13.48
2023-02-24T18:03:41.534Z,12.10
2023-02-24T18:06:14.108Z,11.38
2023-02-24T18:08:43.776Z,17.07
2023-02-24T18:11:16.096Z,16.08
2023-02-24T18:13:44.660Z,16.17
2023-02-24T18:16:16.569Z,13.32
2023-02-24T18:18:44.896Z,12.77
2023-02-24T18:21:17.142Z,16.58
2023-02-24T18:23:46.336Z,13.97
2023-02-24T18:26:16.426Z,14.50
2023-02-24T18:28:45.135Z,14.93
2023-02-24T18:31:15.511Z,19.73
2023-02-24T18:33:44.335Z,16.48
2023-02-24T18:36:13.142Z,15.32
2023-02-24T18:38:44.335Z,24.00
2023-02-24T18:41:15.719Z,15.18
2023-02-24T18:43:45.770Z,12.07
2023-02-24T18:46:15.528Z,11.57
2023-02-24T18:48:46.087Z,12.18
2023-02-24T18:51:17.241Z,11.52
2023-02-24T18:53:47.058Z,11.18
2023-02-24T18:56:18.674Z,12.05
2023-02-24T18:58:47.370Z,14.65
2023-02-24T19:01:17.612Z,10.45
2023-02-24T19:03:50.825Z,13.70
2023-02-24T19:06:21.664Z,10.05
2023-02-24T19:08:56.817Z,9.57
2023-02-24T19:11:25.205Z,11.52
2023-02-24T19:13:54.049Z,8.63
2023-02-24T19:16:23.895Z,9.77
2023-02-24T19:18:53.155Z,10.27
2023-02-24T19:21:22.508Z,10.30
2023-02-24T19:23:54.288Z,7.15
2023-02-24T19:26:24.417Z,5.18
2023-02-24T19:28:53.614Z,6.35
2023-02-24T19:31:30.351Z,8.45
2023-02-24T19:34:01.049Z,7.55
2023-02-24T19:36:29.586Z,6.43
2023-02-24T19:38:59.407Z,6.63
2023-02-24T19:41:29.899Z,4.93
2023-02-24T19:43:58.199Z,5.10
2023-02-24T19:46:29.175Z,7.68
2023-02-24T19:48:58.283Z,5.03
2023-02-24T19:51:31.177Z,5.93
2023-02-24T19:54:03.564Z,5.07
2023-02-24T19:56:35.405Z,5.43
2023-02-24T19:59:05.670Z,5.22
2023-02-24T20:01:34.062Z,4.30
2023-02-24T20:04:05.883Z,5.32
2023-02-24T20:06:36.899Z,4.53
2023-02-24T20:09:08.932Z,4.53
2023-02-24T20:11:37.364Z,6.18
2023-02-24T20:14:06.023Z,10.55
2023-02-24T20:16:37.196Z,8.25
2023-02-24T20:19:11.512Z,9.02
2023-02-24T20:21:40.523Z,10.82
2023-02-24T20:24:13.791Z,11.88
2023-02-24T20:26:46.252Z,9.23
2023-02-24T20:29:14.935Z,6.87
2023-02-24T20:31:45.705Z,10.77
2023-02-24T20:34:17.017Z,6.45
2023-02-24T20:36:45.860Z,6.13
2023-02-24T20:39:15.220Z,6.35
2023-02-24T20:41:44.086Z,7.93
2023-02-24T20:44:12.924Z,5.43
2023-02-24T20:46:41.681Z,7.40
2023-02-24T20:49:12.939Z,6.60
2023-02-24T20:51:45.149Z,6.78
2023-02-24T20:54:16.574Z,6.20
2023-02-24T20:56:46.314Z,7.38
2023-02-24T20:59:19.068Z,11.07
2023-02-24T21:01:48.866Z,7.38
2023-02-24T21:04:18.290Z,7.38
2023-02-24T21:06:48.139Z,7.45
2023-02-24T21:09:17.824Z,6.55
2023-02-24T21:11:46.572Z,7.60
2023-02-24T21:14:16.961Z,6.93
2023-02-24T21:16:46.805Z,9.35
2023-02-24T21:19:15.267Z,8.05
2023-02-24T21:21:50.978Z,11.25
2023-02-24T21:24:21.089Z,11.48
2023-02-24T21:26:49.720Z,10.18
2023-02-24T21:29:18.149Z,12.90
2023-02-24T21:31:47.080Z,9.43
2023-02-24T21:34:18.790Z,8.57
2023-02-24T21:36:47.601Z,10.07
2023-02-24T21:39:16.343Z,10.55
2023-02-24T21:41:46.675Z,11.50
2023-02-24T21:44:16.625Z,18.40
2023-02-24T21:46:45.821Z,10.77
2023-02-24T21:49:14.806Z,9.10
2023-02-24T21:51:44.586Z,12.32
2023-02-24T21:54:14.700Z,8.45
2023-02-24T21:56:43.201Z,10.77
2023-02-24T21:59:14.798Z,10.15
2023-02-24T22:01:45.008Z,13.27
2023-02-24T22:04:18.933Z,13.05
2023-02-24T22:06:47.907Z,14.85
2023-02-24T22:09:20.861Z,11.75
2023-02-24T22:14:21.330Z,10.30
2023-02-24T22:16:49.885Z,14.13
2023-02-24T22:19:19.051Z,11.45
2023-02-24T22:21:49.917Z,12.88
2023-02-24T22:24:19.371Z,13.95
2023-02-24T22:26:51.457Z,13.98
2023-02-24T22:29:22.271Z,11.30
2023-02-24T22:31:50.749Z,13.10
2023-02-24T22:34:20.007Z,12.32
2023-02-24T22:36:48.338Z,10.38
2023-02-24T22:39:17.614Z,16.45
2023-02-24T22:41:48.437Z,10.35
2023-02-24T22:44:19.632Z,13.23
2023-02-24T22:46:49.527Z,10.90
2023-02-24T22:49:18.721Z,12.20
2023-02-24T22:51:48.313Z,14.63
2023-02-24T22:54:16.640Z,11.32
2023-02-24T22:56:46.513Z,13.02
2023-02-24T22:59:16.129Z,12.55
2023-02-24T23:01:45.349Z,10.00
2023-02-24T23:04:18.694Z,8.80
2023-02-24T23:06:49.444Z,10.27
2023-02-24T23:09:20.810Z,9.38
2023-02-24T23:11:49.339Z,11.93
2023-02-24T23:14:17.759Z,9.98
2023-02-24T23:16:48.352Z,13.43
2023-02-24T23:19:19.221Z,10.43
2023-02-24T23:21:49.744Z,7.75
2023-02-24T23:24:19.526Z,9.25
2023-02-24T23:26:51.303Z,7.15
2023-02-24T23:29:23.707Z,8.18
2023-02-24T23:31:52.260Z,8.13
2023-02-24T23:34:23.962Z,7.55
2023-02-24T23:36:53.047Z,6.22
2023-02-24T23:39:23.976Z,7.18
2023-02-24T23:41:56.892Z,8.02
2023-02-24T23:44:26.714Z,10.32
2023-02-24T23:47:01.719Z,8.85
2023-02-24T23:49:46.360Z,6.07
2023-02-24T23:52:18.358Z,7.82
2023-02-24T23:54:53.022Z,8.80
2023-02-24T23:57:21.309Z,8.50
2023-02-24T23:59:52.065Z,6.10
